createdAt,value
2022-09-15T00:01:10.062Z,5.63
2022-09-15T00:03:38.084Z,5.80
2022-09-15T00:06:06.364Z,5.40
2022-09-15T00:08:35.996Z,5.70
2022-09-15T00:11:07.311Z,5.30
2022-09-15T00:13:36.145Z,5.90
2022-09-15T00:16:04.954Z,6.90
2022-09-15T00:18:33.921Z,5.27
2022-09-15T00:21:06.698Z,6.00
2022-09-15T00:23:36.504Z,5.10
2022-09-15T00:26:10.374Z,5.13
2022-09-15T00:28:38.578Z,5.90
2022-09-15T00:31:08.284Z,5.60
2022-09-15T00:33:36.433Z,5.60
2022-09-15T00:36:06.706Z,5.20
2022-09-15T00:38:37.157Z,5.47
2022-09-15T00:41:06.719Z,5.37
2022-09-15T00:43:46.943Z,5.37
2022-09-15T00:46:16.261Z,5.37
2022-09-15T00:48:47.255Z,5.17
2022-09-15T00:51:18.199Z,5.03
2022-09-15T00:53:48.542Z,4.63
2022-09-15T00:56:17.522Z,5.30
2022-09-15T00:58:49.678Z,4.77
2022-09-15T01:01:17.791Z,4.57
2022-09-15T01:03:45.820Z,4.77
2022-09-15T01:06:16.978Z,5.47
2022-09-15T01:08:50.172Z,4.80
2022-09-15T01:11:18.230Z,4.57
2022-09-15T01:13:46.347Z,4.80
2022-09-15T01:16:18.720Z,4.53
2022-09-15T01:18:52.747Z,5.77
2022-09-15T01:21:32.078Z,4.80
2022-09-15T01:24:42.030Z,5.40
2022-09-15T01:27:40.883Z,4.07
2022-09-15T01:30:13.580Z,4.20
2022-09-15T01:33:05.219Z,4.47
2022-09-15T01:35:39.218Z,4.30
2022-09-15T01:38:10.350Z,4.20
2022-09-15T01:40:42.136Z,4.80
2022-09-15T01:43:10.832Z,5.07
2022-09-15T01:45:43.441Z,4.37
2022-09-15T01:48:12.105Z,4.67
2022-09-15T01:50:44.044Z,4.13
2022-09-15T01:53:14.353Z,5.00
2022-09-15T01:55:45.358Z,4.60
2022-09-15T01:58:13.380Z,4.03
2022-09-15T02:00:46.332Z,4.10
2022-09-15T02:03:21.288Z,4.87
2022-09-15T02:05:52.304Z,4.30
2022-09-15T02:08:28.542Z,5.10
2022-09-15T02:11:04.296Z,4.80
2022-09-15T02:13:40.780Z,4.20
2022-09-15T02:16:19.830Z,4.13
2022-09-15T02:18:56.557Z,4.03
2022-09-15T02:21:30.169Z,4.33
2022-09-15T02:24:03.479Z,3.97
2022-09-15T02:26:33.818Z,4.30
2022-09-15T02:29:06.499Z,4.30
2022-09-15T02:31:36.626Z,4.53
2022-09-15T02:34:09.161Z,4.17
2022-09-15T02:36:37.237Z,4.27
2022-09-15T02:39:09.542Z,4.30
2022-09-15T02:41:38.125Z,4.70
2022-09-15T02:44:06.110Z,4.40
2022-09-15T02:46:35.474Z,3.90
2022-09-15T02:49:03.543Z,4.60
2022-09-15T02:51:31.996Z,4.30
2022-09-15T02:54:00.025Z,4.27
2022-09-15T02:56:28.093Z,4.70
2022-09-15T02:58:56.103Z,3.83
2022-09-15T03:01:30.115Z,4.00
2022-09-15T03:04:00.172Z,4.40
2022-09-15T03:06:30.817Z,4.37
2022-09-15T03:09:00.315Z,4.63
2022-09-15T03:11:29.491Z,3.87
2022-09-15T03:13:58.669Z,4.13
2022-09-15T03:16:27.179Z,3.97
2022-09-15T03:18:55.792Z,4.50
2022-09-15T03:21:25.250Z,4.30
2022-09-15T03:23:53.373Z,3.50
2022-09-15T03:26:21.374Z,4.37
2022-09-15T03:28:50.096Z,4.07
2022-09-15T03:31:19.942Z,4.27
2022-09-15T03:33:48.101Z,3.70
2022-09-15T03:36:16.037Z,3.57
2022-09-15T03:38:45.414Z,4.03
2022-09-15T03:41:13.600Z,4.07
2022-09-15T03:43:42.080Z,4.30
2022-09-15T03:46:12.060Z,3.90
2022-09-15T03:48:40.970Z,3.97
2022-09-15T03:51:10.546Z,3.87
2022-09-15T03:53:39.557Z,4.17
2022-09-15T03:56:16.065Z,3.80
2022-09-15T03:58:44.126Z,3.70
2022-09-15T04:01:13.684Z,3.57
2022-09-15T04:03:46.366Z,4.10
2022-09-15T04:06:17.761Z,4.30
2022-09-15T04:08:45.899Z,3.93
2022-09-15T04:11:15.843Z,3.60
2022-09-15T04:13:44.202Z,3.80
2022-09-15T04:16:14.024Z,4.00
2022-09-15T04:18:42.157Z,3.70
2022-09-15T04:21:13.303Z,3.70
2022-09-15T04:23:41.735Z,4.17
2022-09-15T04:26:12.278Z,3.87
2022-09-15T04:28:41.600Z,3.63
2022-09-15T04:31:11.102Z,3.73
2022-09-15T04:33:40.637Z,4.23
2022-09-15T04:36:10.448Z,3.70
2022-09-15T04:38:38.811Z,3.60
2022-09-15T04:41:07.383Z,4.00
2022-09-15T04:43:35.376Z,3.70
2022-09-15T04:46:05.125Z,3.77
2022-09-15T04:48:33.563Z,3.90
2022-09-15T04:51:06.344Z,3.57
2022-09-15T04:53:35.718Z,3.73
2022-09-15T04:56:04.931Z,3.53
2022-09-15T04:58:36.920Z,3.33
2022-09-15T05:01:10.540Z,3.60
2022-09-15T05:03:39.151Z,3.20
2022-09-15T05:06:09.050Z,3.37
2022-09-15T05:08:37.146Z,3.20
2022-09-15T05:11:07.630Z,3.37
2022-09-15T05:13:36.260Z,3.37
2022-09-15T05:16:05.627Z,3.13
2022-09-15T05:18:35.154Z,3.27
2022-09-15T05:21:03.941Z,3.10
2022-09-15T05:23:31.994Z,3.33
2022-09-15T05:26:01.363Z,3.50
2022-09-15T05:28:30.014Z,3.27
2022-09-15T05:30:58.098Z,3.40
2022-09-15T05:33:26.124Z,3.30
2022-09-15T05:35:58.754Z,3.13
2022-09-15T05:38:29.430Z,3.40
2022-09-15T05:41:03.371Z,3.40
2022-09-15T05:43:32.330Z,3.37
2022-09-15T05:46:00.384Z,3.10
2022-09-15T05:48:28.785Z,3.43
2022-09-15T05:50:58.299Z,4.77
2022-09-15T05:53:26.820Z,3.30
2022-09-15T05:55:58.264Z,3.70
2022-09-15T05:58:26.539Z,3.23
2022-09-15T06:00:55.048Z,3.40
2022-09-15T06:03:30.074Z,3.10
2022-09-15T06:06:04.142Z,3.43
2022-09-15T06:08:32.957Z,3.50
2022-09-15T06:11:09.195Z,3.20
2022-09-15T06:13:37.155Z,3.20
2022-09-15T06:16:07.096Z,3.10
2022-09-15T06:18:37.251Z,3.20
2022-09-15T06:21:09.028Z,3.60
2022-09-15T06:23:38.023Z,3.37
2022-09-15T06:26:11.234Z,3.13
2022-09-15T06:28:39.766Z,3.43
2022-09-15T06:31:12.104Z,2.90
2022-09-15T06:33:43.305Z,3.13
2022-09-15T06:36:13.393Z,2.97
2022-09-15T06:38:41.927Z,3.20
2022-09-15T06:41:10.245Z,3.67
2022-09-15T06:43:38.422Z,3.30
2022-09-15T06:46:09.174Z,3.20
2022-09-15T06:48:37.695Z,3.50
2022-09-15T06:51:07.166Z,3.13
2022-09-15T06:53:38.140Z,3.10
2022-09-15T06:56:07.948Z,3.30
2022-09-15T06:58:36.828Z,3.00
2022-09-15T07:01:05.988Z,3.20
2022-09-15T07:03:34.061Z,3.20
2022-09-15T07:06:02.475Z,4.43
2022-09-15T07:08:30.759Z,3.80
2022-09-15T07:11:00.150Z,3.33
2022-09-15T07:13:28.151Z,3.83
2022-09-15T07:15:57.763Z,3.63
2022-09-15T07:18:26.687Z,3.30
2022-09-15T07:20:59.832Z,3.30
2022-09-15T07:23:28.368Z,3.50
2022-09-15T07:26:07.651Z,3.07
2022-09-15T07:28:36.063Z,3.90
2022-09-15T07:31:04.790Z,3.30
2022-09-15T07:33:33.578Z,6.03
2022-09-15T07:36:01.996Z,4.17
2022-09-15T07:38:30.258Z,3.70
2022-09-15T07:41:04.215Z,3.40
2022-09-15T07:43:34.078Z,3.60
2022-09-15T07:46:02.721Z,3.13
2022-09-15T07:48:30.966Z,3.40
2022-09-15T07:50:59.945Z,3.50
2022-09-15T07:53:29.170Z,3.57
2022-09-15T07:55:57.583Z,3.60
2022-09-15T07:58:25.910Z,3.20
2022-09-15T08:00:55.305Z,3.50
2022-09-15T08:03:23.334Z,3.50
2022-09-15T08:05:51.347Z,3.50
2022-09-15T08:08:19.426Z,3.27
2022-09-15T08:10:47.452Z,3.33
2022-09-15T08:13:15.430Z,3.53
2022-09-15T08:15:45.091Z,3.23
2022-09-15T08:18:14.765Z,3.17
2022-09-15T08:20:43.493Z,3.33
2022-09-15T08:23:12.453Z,3.40
2022-09-15T08:25:40.585Z,3.43
2022-09-15T08:28:08.575Z,3.63
2022-09-15T08:30:36.619Z,4.00
2022-09-15T08:33:04.656Z,4.00
2022-09-15T08:35:34.415Z,3.60
2022-09-15T08:38:02.379Z,3.80
2022-09-15T08:40:33.979Z,3.53
2022-09-15T08:43:06.075Z,3.43
2022-09-15T08:45:44.112Z,3.93
2022-09-15T08:48:15.727Z,3.63
2022-09-15T08:50:46.865Z,4.00
2022-09-15T08:53:17.538Z,4.03
2022-09-15T08:55:49.176Z,3.83
2022-09-15T08:58:19.521Z,3.80
2022-09-15T09:00:51.733Z,3.60
2022-09-15T09:03:44.612Z,5.38
2022-09-15T09:06:22.353Z,3.70
2022-09-15T09:09:05.819Z,4.13
2022-09-15T09:11:43.211Z,4.20
2022-09-15T09:14:20.405Z,3.70
2022-09-15T09:17:13.616Z,4.37
2022-09-15T09:19:58.959Z,3.70
2022-09-15T09:22:31.706Z,4.10
2022-09-15T09:25:08.554Z,3.87
2022-09-15T09:27:44.236Z,3.87
2022-09-15T09:30:17.399Z,4.00
2022-09-15T09:32:47.849Z,3.90
2022-09-15T09:35:20.311Z,3.70
2022-09-15T09:37:50.828Z,4.30
2022-09-15T09:40:19.467Z,4.97
2022-09-15T09:42:47.711Z,3.97
2022-09-15T09:45:17.057Z,3.57
2022-09-15T09:47:46.306Z,4.00
2022-09-15T09:50:35.805Z,3.97
2022-09-15T09:53:20.063Z,4.00
2022-09-15T09:55:48.120Z,3.80
2022-09-15T09:58:20.980Z,3.63
2022-09-15T10:00:49.356Z,3.67
2022-09-15T10:03:19.305Z,3.43
2022-09-15T10:06:02.068Z,3.90
2022-09-15T10:08:31.484Z,3.70
2022-09-15T10:11:04.596Z,3.97
2022-09-15T10:13:32.643Z,3.87
2022-09-15T10:16:02.321Z,3.73
2022-09-15T10:18:34.042Z,3.70
2022-09-15T10:21:03.084Z,3.60
2022-09-15T10:23:34.171Z,3.70
2022-09-15T10:26:21.304Z,3.80
2022-09-15T10:29:14.275Z,3.83
2022-09-15T10:31:44.029Z,3.07
2022-09-15T10:34:28.700Z,3.30
2022-09-15T10:37:05.483Z,3.40
2022-09-15T10:39:41.148Z,3.40
2022-09-15T10:42:14.322Z,3.30
2022-09-15T10:44:47.129Z,3.10
2022-09-15T10:47:21.207Z,3.30
2022-09-15T10:49:58.606Z,3.47
2022-09-15T10:52:33.059Z,3.43
2022-09-15T10:55:15.295Z,3.60
2022-09-15T10:57:53.725Z,3.63
2022-09-15T11:00:24.064Z,3.40
2022-09-15T11:03:15.885Z,3.90
2022-09-15T11:05:52.028Z,3.27
2022-09-15T11:08:47.457Z,3.50
2022-09-15T11:11:20.598Z,3.40
2022-09-15T11:13:59.290Z,3.63
2022-09-15T11:16:35.912Z,3.23
2022-09-15T11:19:16.657Z,3.53
2022-09-15T11:21:48.094Z,3.30
2022-09-15T11:24:30.501Z,3.20
2022-09-15T11:27:04.787Z,3.30
2022-09-15T11:29:37.487Z,3.30
2022-09-15T11:32:10.087Z,2.77
2022-09-15T11:34:43.770Z,3.20
2022-09-15T11:37:15.233Z,3.27
2022-09-15T11:39:48.473Z,3.10
2022-09-15T11:42:20.287Z,3.20
2022-09-15T11:44:49.122Z,2.97
2022-09-15T11:47:23.810Z,3.37
2022-09-15T11:49:56.225Z,3.80
2022-09-15T11:52:46.839Z,4.00
2022-09-15T11:55:20.660Z,3.67
2022-09-15T11:57:54.699Z,3.77
2022-09-15T12:00:22.781Z,3.90
2022-09-15T12:02:54.683Z,3.70
2022-09-15T12:05:25.395Z,3.33
2022-09-15T12:07:56.554Z,3.40
2022-09-15T12:10:30.183Z,3.90
2022-09-15T12:13:01.185Z,3.90
2022-09-15T12:15:29.475Z,3.87
2022-09-15T12:18:27.672Z,4.03
2022-09-15T12:21:03.457Z,4.00
2022-09-15T12:23:34.725Z,3.90
2022-09-15T12:26:09.140Z,4.37
2022-09-15T12:28:43.479Z,4.10
2022-09-15T12:31:26.339Z,4.43
2022-09-15T12:33:55.572Z,4.47
2022-09-15T12:36:37.990Z,4.37
2022-09-15T12:39:18.368Z,5.07
2022-09-15T12:41:48.663Z,5.07
2022-09-15T12:44:24.973Z,4.60
2022-09-15T12:46:54.219Z,4.50
2022-09-15T12:49:26.654Z,5.20
2022-09-15T12:51:54.618Z,4.80
2022-09-15T12:54:24.801Z,4.37
2022-09-15T12:56:53.474Z,4.70
2022-09-15T12:59:25.317Z,4.50
2022-09-15T13:01:54.367Z,5.20
2022-09-15T13:04:48.825Z,5.50
2022-09-15T13:07:38.631Z,4.90
2022-09-15T13:10:39.414Z,4.93
2022-09-15T13:13:21.561Z,5.10
2022-09-15T13:15:53.102Z,4.60
2022-09-15T13:18:22.330Z,4.80
2022-09-15T13:20:54.793Z,4.70
2022-09-15T13:23:26.067Z,4.47
2022-09-15T13:25:57.690Z,4.20
2022-09-15T13:28:26.315Z,4.60
2022-09-15T13:31:11.212Z,4.27
2022-09-15T13:40:27.348Z,3.93
2022-09-15T13:43:08.627Z,4.40
2022-09-15T13:45:43.358Z,4.30
2022-09-15T13:48:33.438Z,4.40
2022-09-15T13:51:02.688Z,4.47
2022-09-15T13:53:42.642Z,4.87
2022-09-15T13:56:13.106Z,4.63
2022-09-15T13:59:05.167Z,4.60
2022-09-15T14:01:35.117Z,4.87
2022-09-15T14:04:07.751Z,4.80
2022-09-15T14:06:38.100Z,4.80
2022-09-15T14:09:09.736Z,4.40
2022-09-15T14:11:39.238Z,4.70
2022-09-15T14:14:11.812Z,4.53
2022-09-15T14:16:40.965Z,4.90
2022-09-15T14:19:33.865Z,4.63
2022-09-15T14:22:02.533Z,4.70
2022-09-15T14:24:32.249Z,4.20
2022-09-15T14:27:03.445Z,4.27
2022-09-15T14:29:31.524Z,3.93
2022-09-15T14:32:03.969Z,3.70
2022-09-15T14:34:36.984Z,3.40
2022-09-15T14:37:06.679Z,3.50
2022-09-15T14:39:37.670Z,3.30
2022-09-15T14:42:21.702Z,3.20
2022-09-15T14:47:41.829Z,3.00
2022-09-15T14:50:15.138Z,2.80
2022-09-15T14:52:44.842Z,3.10
2022-09-15T14:55:16.308Z,3.23
2022-09-15T14:57:48.882Z,3.43
2022-09-15T15:00:20.571Z,3.40
2022-09-15T15:02:55.676Z,5.72
2022-09-15T15:05:28.379Z,4.40
2022-09-15T15:07:56.790Z,3.93
2022-09-15T15:10:26.594Z,3.73
2022-09-15T15:12:57.823Z,3.40
2022-09-15T15:15:26.214Z,3.33
2022-09-15T15:17:55.411Z,4.33
2022-09-15T15:20:27.066Z,3.93
2022-09-15T15:23:16.517Z,3.70
2022-09-15T15:25:44.801Z,3.53
2022-09-15T15:28:31.424Z,3.40
2022-09-15T15:31:13.910Z,3.90
2022-09-15T15:33:55.891Z,4.73
2022-09-15T15:36:26.188Z,4.87
2022-09-15T15:38:55.921Z,4.40
2022-09-15T15:41:26.191Z,5.87
2022-09-15T15:44:07.763Z,4.87
2022-09-15T15:46:53.346Z,5.27
2022-09-15T15:49:22.532Z,4.00
2022-09-15T15:51:54.157Z,4.60
2022-09-15T15:54:22.680Z,4.13
2022-09-15T15:56:50.769Z,5.40
2022-09-15T15:59:19.310Z,4.90
2022-09-15T16:01:50.379Z,5.37
2022-09-15T16:04:18.431Z,5.00
2022-09-15T16:06:46.944Z,4.90
2022-09-15T16:09:17.299Z,5.27
2022-09-15T16:11:45.405Z,4.57
2022-09-15T16:14:14.486Z,6.10
2022-09-15T16:16:42.540Z,4.93
2022-09-15T16:19:11.852Z,5.87
2022-09-15T16:21:41.419Z,5.03
2022-09-15T16:24:13.739Z,5.40
2022-09-15T16:26:43.396Z,4.67
2022-09-15T16:29:11.553Z,5.00
2022-09-15T16:31:39.962Z,5.03
2022-09-15T16:34:10.010Z,16.40
2022-09-15T16:36:37.988Z,7.70
2022-09-15T16:39:05.976Z,5.90
2022-09-15T16:41:38.479Z,4.93
2022-09-15T16:44:17.611Z,5.47
2022-09-15T16:46:45.918Z,5.20
2022-09-15T16:49:13.991Z,5.03
2022-09-15T16:51:42.020Z,5.30
2022-09-15T16:54:16.004Z,5.00
2022-09-15T16:56:44.236Z,4.40
2022-09-15T16:59:14.116Z,4.80
2022-09-15T17:01:42.304Z,4.70
2022-09-15T17:04:13.639Z,5.10
2022-09-15T17:06:41.751Z,4.80
2022-09-15T17:09:09.905Z,5.77
2022-09-15T17:11:38.007Z,5.33
2022-09-15T17:14:06.222Z,5.27
2022-09-15T17:16:35.822Z,4.70
2022-09-15T17:19:03.872Z,4.70
2022-09-15T17:21:32.624Z,5.00
2022-09-15T17:24:00.744Z,4.80
2022-09-15T17:26:31.195Z,4.73
2022-09-15T17:28:59.646Z,4.90
2022-09-15T17:31:28.010Z,4.70
2022-09-15T17:33:57.568Z,4.60
2022-09-15T17:36:25.852Z,4.70
2022-09-15T17:38:53.905Z,4.77
2022-09-15T17:41:22.849Z,5.60
2022-09-15T17:43:50.862Z,4.57
2022-09-15T17:46:18.904Z,4.40
2022-09-15T17:48:46.974Z,5.03
2022-09-15T17:51:18.180Z,4.90
2022-09-15T17:53:47.752Z,5.03
2022-09-15T17:56:15.851Z,4.23
2022-09-15T17:58:43.864Z,5.47
2022-09-15T18:01:13.604Z,7.43
2022-09-15T18:03:43.687Z,5.00
2022-09-15T18:06:12.359Z,4.60
2022-09-15T18:08:41.995Z,4.27
2022-09-15T18:11:12.476Z,4.57
2022-09-15T18:13:40.487Z,4.80
2022-09-15T18:16:12.836Z,4.23
2022-09-15T18:18:41.030Z,4.20
2022-09-15T18:21:11.794Z,4.00
2022-09-15T18:23:42.461Z,4.03
2022-09-15T18:26:10.457Z,4.50
2022-09-15T18:28:38.484Z,4.10
2022-09-15T18:31:06.893Z,4.47
2022-09-15T18:33:34.932Z,4.67
2022-09-15T18:36:03.254Z,4.77
2022-09-15T18:38:31.510Z,4.23
2022-09-15T18:41:01.459Z,5.23
2022-09-15T18:43:29.591Z,4.60
2022-09-15T18:45:59.814Z,5.03
2022-09-15T18:48:28.393Z,4.50
2022-09-15T18:50:56.421Z,4.90
2022-09-15T18:53:24.616Z,5.30
2022-09-15T18:55:52.648Z,5.27
2022-09-15T18:58:22.721Z,5.10
2022-09-15T19:00:50.756Z,5.57
2022-09-15T19:03:18.757Z,5.20
2022-09-15T19:05:46.791Z,6.17
2022-09-15T19:08:15.533Z,5.83
2022-09-15T19:10:44.283Z,5.97
2022-09-15T19:13:14.155Z,5.27
2022-09-15T19:15:44.591Z,6.33
2022-09-15T19:18:12.713Z,6.40
2022-09-15T19:20:41.162Z,8.27
2022-09-15T19:23:09.430Z,6.47
2022-09-15T19:25:37.902Z,6.30
2022-09-15T19:28:05.866Z,6.20
2022-09-15T19:30:33.938Z,6.43
2022-09-15T19:33:04.770Z,5.70
2022-09-15T19:35:32.800Z,6.57
2022-09-15T19:38:00.810Z,6.17
2022-09-15T19:40:28.972Z,6.40
2022-09-15T19:42:57.086Z,6.97
2022-09-15T19:45:25.081Z,6.57
2022-09-15T19:47:53.068Z,6.83
2022-09-15T19:50:23.329Z,6.17
2022-09-15T19:52:52.697Z,6.80
2022-09-15T19:55:21.667Z,6.30
2022-09-15T19:57:49.696Z,6.80
2022-09-15T20:00:17.736Z,6.50
2022-09-15T20:02:48.570Z,6.60
2022-09-15T20:05:16.666Z,7.00
2022-09-15T20:07:48.086Z,7.50
2022-09-15T20:10:16.341Z,6.80
2022-09-15T20:12:44.635Z,7.10
2022-09-15T20:15:12.604Z,7.37
2022-09-15T20:17:42.365Z,7.60
2022-09-15T20:20:11.778Z,7.30
2022-09-15T20:22:39.811Z,7.03
2022-09-15T20:25:09.456Z,6.57
2022-09-15T20:27:38.232Z,7.07
2022-09-15T20:30:07.888Z,7.27
2022-09-15T20:32:35.965Z,8.03
2022-09-15T20:35:04.407Z,6.80
2022-09-15T20:37:37.218Z,8.20
2022-09-15T20:40:07.390Z,7.90
2022-09-15T20:42:37.131Z,8.00
2022-09-15T20:45:05.904Z,7.67
2022-09-15T20:47:34.398Z,8.17
2022-09-15T20:50:02.484Z,7.50
2022-09-15T20:52:36.026Z,7.60
2022-09-15T20:55:06.871Z,7.53
2022-09-15T20:57:36.431Z,6.77
2022-09-15T21:00:06.214Z,7.63
2022-09-15T21:02:34.334Z,6.20
2022-09-15T21:05:02.404Z,7.10
2022-09-15T21:07:31.511Z,6.63
2022-09-15T21:09:59.545Z,7.10
2022-09-15T21:12:27.611Z,6.23
2022-09-15T21:14:57.938Z,7.07
2022-09-15T21:17:25.885Z,7.40
2022-09-15T21:19:53.879Z,7.30
2022-09-15T21:22:22.128Z,7.07
2022-09-15T21:24:50.089Z,6.60
2022-09-15T21:27:30.634Z,7.10
2022-09-15T21:29:59.971Z,7.10
2022-09-15T21:32:28.203Z,7.00
2022-09-15T21:34:56.271Z,7.37
2022-09-15T21:37:27.864Z,7.70
2022-09-15T21:39:55.958Z,7.73
2022-09-15T21:42:24.097Z,7.40
2022-09-15T21:44:52.134Z,7.77
2022-09-15T21:47:21.505Z,7.30
2022-09-15T21:49:51.758Z,7.90
2022-09-15T21:52:19.814Z,6.57
2022-09-15T21:54:47.908Z,8.43
2022-09-15T21:57:16.135Z,7.30
2022-09-15T21:59:44.171Z,8.37
2022-09-15T22:02:12.310Z,8.10
2022-09-15T22:04:41.759Z,7.40
2022-09-15T22:07:09.754Z,7.73
2022-09-15T22:09:39.487Z,8.80
2022-09-15T22:12:08.523Z,7.50
2022-09-15T22:14:36.519Z,7.30
2022-09-15T22:17:04.501Z,7.57
2022-09-15T22:19:59.563Z,8.00
2022-09-15T22:22:27.656Z,7.17
2022-09-15T22:24:55.676Z,7.60
2022-09-15T22:27:23.721Z,7.33
2022-09-15T22:29:51.775Z,7.57
2022-09-15T22:32:19.795Z,7.67
2022-09-15T22:34:47.836Z,7.20
2022-09-15T22:37:17.169Z,6.17
2022-09-15T22:39:58.530Z,6.77
2022-09-15T22:42:27.521Z,7.23
2022-09-15T22:44:55.487Z,8.03
2022-09-15T22:47:23.497Z,7.67
2022-09-15T22:49:51.477Z,7.47
2022-09-15T22:52:21.209Z,8.17
2022-09-15T22:54:49.180Z,8.53
2022-09-15T22:57:17.152Z,9.03
2022-09-15T22:59:45.178Z,7.17
2022-09-15T23:02:13.204Z,7.40
2022-09-15T23:04:41.207Z,6.77
2022-09-15T23:07:09.524Z,7.27
2022-09-15T23:09:38.909Z,6.70
2022-09-15T23:12:08.907Z,6.73
2022-09-15T23:14:37.041Z,7.00
2022-09-15T23:17:05.030Z,8.03
2022-09-15T23:19:33.052Z,10.03
2022-09-15T23:22:01.032Z,10.20
2022-09-15T23:24:29.202Z,11.40
2022-09-15T23:26:58.514Z,9.67
2022-09-15T23:29:26.622Z,10.70
2022-09-15T23:31:54.798Z,10.57
2022-09-15T23:34:22.927Z,11.50
2022-09-15T23:36:50.932Z,11.30
2022-09-15T23:39:18.963Z,10.87
2022-09-15T23:41:46.961Z,11.67
2022-09-15T23:44:16.279Z,12.27
2022-09-15T23:46:44.334Z,10.87
2022-09-15T23:49:16.689Z,11.77
2022-09-15T23:51:46.553Z,12.60
2022-09-15T23:54:14.728Z,10.70
2022-09-15T23:56:43.383Z,11.00
2022-09-15T23:59:11.366Z,10.07
